Time;durP1;ratioP1;P1;durP2;ratioP2;P2;SDS_P1;SDS_P2;PMS_P1;PMS_P2;Temp;Humidity;BMP_temperature;BMP_pressure;BME280_temperature;BME280_humidity;BME280_pressure;Samples;Min_cycle;Max_cycle;Signal;HPM_P1;HPM_P2
2023/09/14 00:00:34;;;;;;;6.97;1.85;;;12.80;99.90;;;;;;5080920;28;20029;-79
2023/09/14 00:03:00;;;;;;;7.43;1.80;;;12.80;99.90;;;;;;5081508;28;20111;-79
2023/09/14 00:05:26;;;;;;;9.93;1.80;;;12.80;99.90;;;;;;5080838;28;20036;-78
2023/09/14 00:07:51;;;;;;;8.77;2.25;;;12.80;99.90;;;;;;5081332;28;20036;-77
2023/09/14 00:10:17;;;;;;;7.85;1.90;;;12.70;99.90;;;;;;5082571;28;20054;-80
2023/09/14 00:12:42;;;;;;;8.30;2.47;;;12.70;99.90;;;;;;5080965;28;20040;-77
2023/09/14 00:15:08;;;;;;;8.70;2.25;;;12.70;99.90;;;;;;5079665;28;20126;-78
2023/09/14 00:17:34;;;;;;;11.13;1.83;;;12.80;99.90;;;;;;5080744;28;20027;-79
2023/09/14 00:20:00;;;;;;;9.15;1.95;;;12.70;99.90;;;;;;5080740;28;20028;-79
2023/09/14 00:22:28;;;;;;;8.65;2.10;;;12.80;99.90;;;;;;5080284;28;20062;-77
2023/09/14 00:24:54;;;;;;;9.57;2.38;;;12.80;99.90;;;;;;5079195;28;20378;-78
2023/09/14 00:27:20;;;;;;;13.02;2.30;;;12.80;99.90;;;;;;5080322;28;20374;-79
2023/09/14 00:29:49;;;;;;;9.85;2.20;;;12.80;99.90;;;;;;5080854;28;20040;-78
2023/09/14 00:32:15;;;;;;;9.15;2.90;;;12.80;99.90;;;;;;5079705;28;20111;-77
2023/09/14 00:34:40;;;;;;;10.38;2.45;;;12.70;99.90;;;;;;5079489;28;20072;-79
2023/09/14 00:37:06;;;;;;;9.77;2.33;;;12.70;99.90;;;;;;5078802;28;20028;-78
2023/09/14 00:39:33;;;;;;;6.95;2.60;;;12.80;99.90;;;;;;5080455;28;20017;-80
2023/09/14 00:41:59;;;;;;;7.20;2.13;;;12.80;99.90;;;;;;5080318;28;20078;-80
2023/09/14 00:44:25;;;;;;;7.82;1.95;;;12.80;99.90;;;;;;5080716;28;20393;-78
2023/09/14 00:46:50;;;;;;;8.15;2.42;;;12.70;99.90;;;;;;5081710;28;20029;-79
2023/09/14 00:49:16;;;;;;;6.35;1.90;;;12.70;99.90;;;;;;5080504;28;20032;-77
2023/09/14 00:51:42;;;;;;;10.85;2.10;;;12.70;99.90;;;;;;5080543;28;20028;-78
2023/09/14 00:54:07;;;;;;;8.57;1.92;;;12.70;99.90;;;;;;5079896;28;20051;-79
2023/09/14 00:56:34;;;;;;;14.65;2.20;;;12.70;99.90;;;;;;5079834;28;20091;-81
2023/09/14 00:59:00;;;;;;;8.70;1.83;;;12.70;99.90;;;;;;5079934;28;20462;-81
2023/09/14 01:01:27;;;;;;;8.07;2.17;;;12.60;99.90;;;;;;5081291;28;20036;-80
2023/09/14 01:03:52;;;;;;;9.82;1.83;;;12.60;99.90;;;;;;5079201;28;20111;-78
2023/09/14 01:06:18;;;;;;;7.90;2.22;;;12.60;99.90;;;;;;5080135;28;20060;-78
2023/09/14 01:08:44;;;;;;;7.28;1.95;;;12.60;99.90;;;;;;5079676;28;20791;-78
2023/09/14 01:11:10;;;;;;;7.53;2.08;;;12.50;99.90;;;;;;5079988;28;20024;-78
2023/09/14 01:13:49;;;;;;;7.47;2.10;;;12.50;99.90;;;;;;5081136;28;20028;-78
2023/09/14 01:16:36;;;;;;;12.68;2.13;;;12.50;99.90;;;;;;5078525;28;20842;-79
2023/09/14 01:19:18;;;;;;;8.07;1.70;;;12.50;99.90;;;;;;5079341;28;20082;-79
2023/09/14 01:21:58;;;;;;;10.60;1.80;;;12.60;99.90;;;;;;5078167;28;20070;-77
2023/09/14 01:24:36;;;;;;;8.00;2.00;;;12.60;99.90;;;;;;5079792;28;20085;-78
2023/09/14 01:27:03;;;;;;;10.25;1.83;;;12.60;99.90;;;;;;5078698;28;20044;-78
2023/09/14 01:29:29;;;;;;;6.05;1.65;;;12.60;99.90;;;;;;5079103;28;21316;-77
2023/09/14 01:31:55;;;;;;;6.78;1.73;;;12.60;99.90;;;;;;5081599;28;20038;-80
2023/09/14 01:34:21;;;;;;;6.18;1.70;;;12.70;99.90;;;;;;5079522;28;20048;-77
2023/09/14 01:36:58;;;;;;;10.25;1.90;;;12.70;99.90;;;;;;5078792;28;20103;-78
2023/09/14 01:39:27;;;;;;;4.57;1.60;;;12.60;99.90;;;;;;5078420;28;20401;-77
2023/09/14 01:41:56;;;;;;;6.75;1.60;;;12.60;99.90;;;;;;5078897;28;20060;-79
2023/09/14 01:44:27;;;;;;;9.60;1.77;;;12.60;99.90;;;;;;5078235;28;20459;-77
2023/09/14 01:46:55;;;;;;;6.78;2.00;;;12.60;99.90;;;;;;5078756;28;20028;-80
2023/09/14 01:49:21;;;;;;;7.05;1.77;;;12.60;99.90;;;;;;5080101;28;20016;-77
2023/09/14 01:51:47;;;;;;;8.93;2.00;;;12.60;99.90;;;;;;5080432;28;20039;-79
2023/09/14 01:54:12;;;;;;;12.73;2.30;;;12.60;99.90;;;;;;5079450;28;20021;-79
2023/09/14 01:56:38;;;;;;;9.18;1.85;;;12.60;99.90;;;;;;5078946;28;20132;-76
2023/09/14 01:59:04;;;;;;;9.13;1.92;;;12.60;99.90;;;;;;5078767;28;20035;-79
2023/09/14 02:01:30;;;;;;;4.82;1.50;;;12.60;99.90;;;;;;5078150;28;20431;-77
2023/09/14 02:03:56;;;;;;;13.27;1.80;;;12.60;99.90;;;;;;5081185;28;20044;-80
2023/09/14 02:06:22;;;;;;;7.55;1.65;;;12.70;99.90;;;;;;5078801;28;20025;-78
2023/09/14 02:08:47;;;;;;;12.00;1.83;;;12.70;99.90;;;;;;5080954;28;20024;-77
2023/09/14 02:11:13;;;;;;;5.68;1.80;;;12.70;99.90;;;;;;5079042;28;20047;-75
2023/09/14 02:13:46;;;;;;;8.57;1.90;;;12.70;99.90;;;;;;5079191;28;20025;-76
2023/09/14 02:16:12;;;;;;;9.23;2.03;;;12.70;99.90;;;;;;5079038;28;20036;-75
2023/09/14 02:18:37;;;;;;;7.45;1.70;;;12.70;99.90;;;;;;5080820;28;20124;-77
2023/09/14 02:21:04;;;;;;;5.47;2.08;;;12.70;99.90;;;;;;5079540;28;20108;-77
2023/09/14 02:23:29;;;;;;;7.20;1.92;;;12.70;99.90;;;;;;5078962;28;20035;-79
2023/09/14 02:25:55;;;;;;;12.75;1.98;;;12.70;99.90;;;;;;5079321;28;20092;-79
2023/09/14 02:28:21;;;;;;;8.07;1.95;;;12.70;99.90;;;;;;5080827;28;20064;-78
2023/09/14 02:30:47;;;;;;;12.68;2.03;;;12.80;99.90;;;;;;5080493;28;20028;-78
2023/09/14 02:33:12;;;;;;;4.90;1.40;;;12.80;99.90;;;;;;5079004;28;20024;-78
2023/09/14 02:35:41;;;;;;;7.88;1.60;;;12.80;99.90;;;;;;5080185;28;20056;-78
2023/09/14 02:38:08;;;;;;;7.45;1.48;;;12.80;99.90;;;;;;5079693;28;20028;-76
2023/09/14 02:40:36;;;;;;;11.27;1.67;;;12.80;99.90;;;;;;5081608;28;20036;-78
2023/09/14 02:43:03;;;;;;;7.90;1.40;;;12.90;99.90;;;;;;5084009;28;20029;-78
2023/09/14 02:45:29;;;;;;;6.65;1.80;;;12.90;99.90;;;;;;5084163;28;20029;-77
2023/09/14 02:47:54;;;;;;;8.38;1.65;;;12.80;99.90;;;;;;5083173;28;20031;-78
2023/09/14 02:50:20;;;;;;;6.10;1.70;;;12.80;99.90;;;;;;5082860;28;20016;-78
2023/09/14 02:52:45;;;;;;;7.28;1.75;;;12.90;99.90;;;;;;5083344;28;20052;-77
2023/09/14 02:55:12;;;;;;;4.93;1.45;;;12.90;99.90;;;;;;5084304;28;20051;-79
2023/09/14 02:57:37;;;;;;;6.70;1.50;;;12.90;99.90;;;;;;5083270;28;20029;-77
2023/09/14 03:00:06;;;;;;;6.18;1.40;;;12.90;99.90;;;;;;5084875;28;20447;-79
2023/09/14 03:02:32;;;;;;;9.02;1.92;;;12.90;99.90;;;;;;5083587;28;20039;-78
2023/09/14 03:04:58;;;;;;;6.57;1.60;;;12.90;99.90;;;;;;5085103;28;20028;-78
2023/09/14 03:07:24;;;;;;;7.22;1.48;;;12.80;99.90;;;;;;5082408;28;20077;-78
2023/09/14 03:09:49;;;;;;;4.82;1.67;;;12.80;99.90;;;;;;5083920;28;20127;-78
2023/09/14 03:12:15;;;;;;;6.15;1.90;;;12.70;99.90;;;;;;5082857;28;20024;-78
2023/09/14 03:14:42;;;;;;;8.75;1.90;;;12.70;99.90;;;;;;5081820;28;20050;-78
2023/09/14 03:17:08;;;;;;;10.50;1.70;;;12.80;99.90;;;;;;5082398;28;20022;-79
2023/09/14 03:19:33;;;;;;;10.40;1.85;;;12.70;99.90;;;;;;5083216;28;20112;-77
2023/09/14 03:22:00;;;;;;;7.00;1.70;;;12.70;99.90;;;;;;5084072;28;20048;-78
2023/09/14 03:24:26;;;;;;;7.63;2.03;;;12.70;99.90;;;;;;5084876;28;20056;-79
2023/09/14 03:26:51;;;;;;;4.07;1.67;;;12.70;99.90;;;;;;5084369;28;20520;-78
2023/09/14 03:29:17;;;;;;;7.18;1.80;;;12.60;99.90;;;;;;5084180;28;20059;-78
2023/09/14 03:31:43;;;;;;;6.38;1.80;;;12.50;99.90;;;;;;5081844;28;20408;-76
2023/09/14 03:34:08;;;;;;;5.80;1.77;;;12.60;99.90;;;;;;5082411;28;20082;-76
2023/09/14 03:36:35;;;;;;;7.47;2.10;;;12.60;99.90;;;;;;5083174;28;20033;-78
2023/09/14 03:39:01;;;;;;;10.18;2.08;;;12.60;99.90;;;;;;5083247;28;20063;-78
2023/09/14 03:41:27;;;;;;;5.25;1.80;;;12.60;99.90;;;;;;5082868;28;20021;-78
2023/09/14 03:43:53;;;;;;;8.60;2.03;;;12.50;99.90;;;;;;5082152;28;20024;-80
2023/09/14 03:46:19;;;;;;;7.50;2.33;;;12.50;99.90;;;;;;5081483;28;20518;-79
2023/09/14 03:48:44;;;;;;;4.75;1.95;;;12.50;99.90;;;;;;5081949;28;20025;-79
2023/09/14 03:51:10;;;;;;;10.13;2.40;;;12.60;99.90;;;;;;5082466;28;20017;-80
2023/09/14 03:53:43;;;;;;;10.88;2.28;;;12.50;99.90;;;;;;5081356;28;20421;-79
2023/09/14 03:56:09;;;;;;;8.43;2.42;;;12.40;99.90;;;;;;5080419;28;20029;-79
2023/09/14 03:58:34;;;;;;;10.60;2.20;;;12.50;99.90;;;;;;5081304;28;20039;-79
2023/09/14 04:01:04;;;;;;;7.60;2.10;;;12.50;99.90;;;;;;5081153;28;20017;-79
2023/09/14 04:03:30;;;;;;;9.35;2.40;;;12.40;99.90;;;;;;5081808;28;20021;-79
2023/09/14 04:06:00;;;;;;;6.88;2.28;;;12.40;99.90;;;;;;5082757;28;20051;-81
2023/09/14 04:08:27;;;;;;;9.95;2.03;;;12.40;99.90;;;;;;5081733;28;20059;-80
2023/09/14 04:10:52;;;;;;;8.50;2.70;;;12.40;99.90;;;;;;5081602;28;20025;-79
2023/09/14 04:13:30;;;;;;;9.52;2.13;;;12.40;99.90;;;;;;5083089;28;20024;-78
2023/09/14 04:16:01;;;;;;;10.93;2.58;;;12.40;99.90;;;;;;5082882;28;20097;-81
2023/09/14 04:18:28;;;;;;;8.85;2.53;;;12.40;99.90;;;;;;5081123;28;20032;-80
2023/09/14 04:20:54;;;;;;;7.72;2.20;;;12.30;99.90;;;;;;5080901;28;20032;-79
2023/09/14 04:23:20;;;;;;;7.10;2.15;;;12.40;99.90;;;;;;5081004;28;20031;-78
2023/09/14 04:25:47;;;;;;;5.82;2.20;;;12.40;99.90;;;;;;5080315;28;20048;-79
2023/09/14 04:28:18;;;;;;;8.95;2.30;;;12.40;99.90;;;;;;5080305;28;20052;-79
2023/09/14 04:30:49;;;;;;;9.05;2.45;;;12.40;99.90;;;;;;5082013;28;20028;-78
2023/09/14 04:33:16;;;;;;;9.98;2.67;;;12.40;99.90;;;;;;5082020;28;20078;-80
2023/09/14 04:35:42;;;;;;;10.77;2.40;;;12.50;99.90;;;;;;5080635;28;20056;-79
2023/09/14 04:38:08;;;;;;;7.35;2.33;;;12.50;99.90;;;;;;5080529;28;20025;-79
2023/09/14 04:40:41;;;;;;;12.05;2.55;;;12.50;99.90;;;;;;5082169;28;20115;-78
2023/09/14 04:43:08;;;;;;;12.07;2.63;;;12.50;99.90;;;;;;5080109;28;20024;-79
2023/09/14 04:45:35;;;;;;;8.23;2.38;;;12.50;99.90;;;;;;5080953;28;20025;-81
2023/09/14 04:48:01;;;;;;;9.60;2.50;;;12.50;99.90;;;;;;5080869;28;20020;-79
2023/09/14 04:50:27;;;;;;;12.07;2.85;;;12.50;99.90;;;;;;5080965;28;20027;-81
2023/09/14 04:52:53;;;;;;;7.28;2.38;;;12.50;99.90;;;;;;5079621;28;20017;-75
2023/09/14 04:55:19;;;;;;;10.63;2.58;;;12.50;99.90;;;;;;5081378;28;20040;-75
2023/09/14 04:57:46;;;;;;;10.55;2.40;;;12.50;99.90;;;;;;5082062;28;20134;-75
2023/09/14 05:00:12;;;;;;;10.05;3.17;;;12.50;99.90;;;;;;5081409;28;20067;-73
2023/09/14 05:02:39;;;;;;;5.47;2.33;;;12.60;99.90;;;;;;5079942;28;21421;-73
2023/09/14 05:05:06;;;;;;;5.53;2.55;;;12.60;99.90;;;;;;5078254;28;20040;-75
2023/09/14 05:07:32;;;;;;;12.80;3.10;;;12.60;99.90;;;;;;5079959;28;20070;-74
2023/09/14 05:09:58;;;;;;;5.97;2.53;;;12.60;99.90;;;;;;5079791;28;20021;-72
2023/09/14 05:12:24;;;;;;;9.10;2.47;;;12.60;99.90;;;;;;5082510;28;20015;-74
2023/09/14 05:14:49;;;;;;;12.70;2.80;;;12.60;99.90;;;;;;5079993;28;20029;-74
2023/09/14 05:17:15;;;;;;;10.30;2.72;;;12.60;99.90;;;;;;5081657;28;20787;-75
2023/09/14 05:19:45;;;;;;;12.90;2.65;;;12.70;99.90;;;;;;5081289;28;20032;-75
2023/09/14 05:22:10;;;;;;;7.15;2.40;;;12.70;99.90;;;;;;5079950;28;20032;-77
2023/09/14 05:24:39;;;;;;;9.65;2.70;;;12.70;99.90;;;;;;5076376;28;20036;-73
2023/09/14 05:27:05;;;;;;;14.60;2.45;;;12.70;99.90;;;;;;5076936;28;20028;-72
2023/09/14 05:29:32;;;;;;;10.57;2.40;;;12.80;99.90;;;;;;5079239;28;20074;-74
2023/09/14 05:31:57;;;;;;;9.73;2.88;;;12.80;99.90;;;;;;5080705;28;20020;-74
2023/09/14 05:34:23;;;;;;;9.27;2.33;;;12.80;99.90;;;;;;5080079;28;20056;-74
2023/09/14 05:36:49;;;;;;;7.55;2.70;;;12.80;99.90;;;;;;5078567;28;20508;-73
2023/09/14 05:39:14;;;;;;;10.05;2.80;;;12.80;99.90;;;;;;5079479;28;21135;-74
2023/09/14 05:41:40;;;;;;;7.13;2.92;;;12.90;99.90;;;;;;5078651;28;20021;-74
2023/09/14 05:44:10;;;;;;;9.38;2.67;;;12.80;99.90;;;;;;5076160;28;20025;-73
2023/09/14 05:46:39;;;;;;;10.90;2.58;;;12.90;99.90;;;;;;5073228;28;20012;-74
2023/09/14 05:49:05;;;;;;;8.75;2.60;;;12.90;99.90;;;;;;5080474;28;20036;-73
2023/09/14 05:51:31;;;;;;;6.88;2.70;;;12.80;99.90;;;;;;5080082;28;20025;-74
2023/09/14 05:53:56;;;;;;;9.05;2.67;;;12.90;99.90;;;;;;5079944;28;20118;-75
2023/09/14 05:56:22;;;;;;;6.95;3.00;;;12.90;99.90;;;;;;5079445;28;20039;-73
2023/09/14 05:58:49;;;;;;;9.50;2.97;;;12.80;99.90;;;;;;5079281;28;20025;-73
2023/09/14 06:01:15;;;;;;;10.00;2.63;;;12.90;99.90;;;;;;5070120;28;20048;-73
2023/09/14 06:03:41;;;;;;;7.05;2.60;;;12.90;99.90;;;;;;5080695;28;20040;-73
2023/09/14 06:06:07;;;;;;;6.65;2.63;;;12.90;99.90;;;;;;5080778;28;20032;-74
2023/09/14 06:08:32;;;;;;;19.98;3.58;;;12.90;99.90;;;;;;5081563;28;20126;-74
2023/09/14 06:11:00;;;;;;;11.43;2.88;;;12.90;99.90;;;;;;5079683;28;20388;-75
2023/09/14 06:13:26;;;;;;;10.73;2.65;;;12.90;99.90;;;;;;5083248;28;20606;-75
2023/09/14 06:15:52;;;;;;;9.63;2.92;;;12.90;99.90;;;;;;5083447;28;20039;-74
2023/09/14 06:18:18;;;;;;;8.57;2.75;;;13.00;99.90;;;;;;5084621;28;20056;-73
2023/09/14 06:20:44;;;;;;;5.35;3.00;;;13.00;99.90;;;;;;5084963;28;20028;-74
2023/09/14 06:23:09;;;;;;;11.85;3.20;;;13.00;99.90;;;;;;5084051;28;20020;-73
2023/09/14 06:25:35;;;;;;;8.90;2.63;;;13.10;99.90;;;;;;5084546;28;20028;-75
2023/09/14 06:28:01;;;;;;;10.60;3.28;;;13.10;99.90;;;;;;5083185;28;20025;-75
2023/09/14 06:30:27;;;;;;;7.35;2.60;;;13.20;99.90;;;;;;5084947;28;20068;-73
2023/09/14 06:32:52;;;;;;;8.65;2.60;;;13.20;99.90;;;;;;5084644;28;20024;-75
2023/09/14 06:35:18;;;;;;;8.55;3.10;;;13.30;99.90;;;;;;5084718;28;20558;-73
2023/09/14 06:37:43;;;;;;;7.95;2.58;;;13.30;99.90;;;;;;5084681;28;20486;-74
2023/09/14 06:40:10;;;;;;;10.15;2.78;;;13.30;99.90;;;;;;5084326;28;20028;-74
2023/09/14 06:42:36;;;;;;;9.18;2.47;;;13.30;99.90;;;;;;5084867;28;20033;-74
2023/09/14 06:45:03;;;;;;;12.15;2.85;;;13.40;99.90;;;;;;5084523;28;20142;-74
2023/09/14 06:47:29;;;;;;;10.23;2.85;;;13.40;99.90;;;;;;5083071;28;20037;-74
2023/09/14 06:49:55;;;;;;;6.38;2.33;;;13.40;99.90;;;;;;5078438;28;20655;-75
2023/09/14 06:52:21;;;;;;;12.50;2.72;;;13.50;99.90;;;;;;5082470;28;20083;-74
2023/09/14 06:54:47;;;;;;;6.20;2.45;;;13.50;99.90;;;;;;5082989;28;20025;-73
2023/09/14 06:57:13;;;;;;;9.40;2.50;;;13.50;99.90;;;;;;5082903;28;20060;-74
2023/09/14 06:59:39;;;;;;;7.50;2.80;;;13.60;99.90;;;;;;5081084;28;20036;-75
2023/09/14 07:02:05;;;;;;;8.70;2.70;;;13.70;99.90;;;;;;5081595;28;20067;-74
2023/09/14 07:04:33;;;;;;;7.45;2.15;;;13.70;99.90;;;;;;5079990;28;20028;-75
2023/09/14 07:06:59;;;;;;;8.93;2.42;;;13.80;99.90;;;;;;5079071;28;20044;-75
2023/09/14 07:09:26;;;;;;;8.13;2.33;;;13.90;99.90;;;;;;5082180;28;20192;-74
2023/09/14 07:11:52;;;;;;;8.63;1.90;;;13.90;99.90;;;;;;5083478;28;20035;-74
2023/09/14 07:14:18;;;;;;;6.88;2.22;;;13.90;99.90;;;;;;5082893;28;20028;-74
2023/09/14 07:16:43;;;;;;;8.43;2.35;;;14.00;99.90;;;;;;5081711;28;20041;-74
2023/09/14 07:19:09;;;;;;;8.50;2.40;;;14.00;99.90;;;;;;5084120;28;20021;-74
2023/09/14 07:21:37;;;;;;;7.03;2.17;;;14.10;99.90;;;;;;5082715;28;20039;-75
2023/09/14 07:24:08;;;;;;;6.18;2.20;;;14.10;99.90;;;;;;5080111;28;20040;-75
2023/09/14 07:26:35;;;;;;;9.55;2.30;;;14.10;99.90;;;;;;5083847;28;20085;-74
2023/09/14 07:29:01;;;;;;;9.38;2.33;;;14.10;99.90;;;;;;5082232;28;20035;-75
2023/09/14 07:31:27;;;;;;;17.00;2.63;;;14.20;99.90;;;;;;5083653;28;20025;-74
2023/09/14 07:33:53;;;;;;;5.40;2.40;;;14.20;99.90;;;;;;5081538;28;20027;-73
2023/09/14 07:36:19;;;;;;;10.38;2.45;;;14.20;99.90;;;;;;5082118;28;20045;-74
2023/09/14 07:38:45;;;;;;;9.15;1.95;;;14.30;99.90;;;;;;5081345;28;20061;-73
2023/09/14 07:41:11;;;;;;;9.70;2.67;;;14.30;99.90;;;;;;5079801;28;20031;-74
2023/09/14 07:43:36;;;;;;;7.97;2.60;;;14.40;99.90;;;;;;5078958;28;20474;-74
2023/09/14 07:46:02;;;;;;;13.52;2.80;;;14.40;99.90;;;;;;5081923;28;20564;-75
2023/09/14 07:48:31;;;;;;;6.38;2.20;;;14.40;99.90;;;;;;5081502;28;20024;-74
2023/09/14 07:50:57;;;;;;;8.45;2.50;;;14.50;99.90;;;;;;5078725;28;20024;-74
2023/09/14 07:53:22;;;;;;;11.75;2.67;;;14.50;99.90;;;;;;5081835;28;20050;-74
2023/09/14 07:55:52;;;;;;;14.55;2.80;;;14.60;99.90;;;;;;5079670;28;20049;-73
2023/09/14 07:58:19;;;;;;;10.40;2.30;;;14.60;99.90;;;;;;5079023;28;20039;-74
2023/09/14 08:00:46;;;;;;;9.45;2.38;;;14.70;99.90;;;;;;5082492;28;20179;-74
2023/09/14 08:03:13;;;;;;;12.85;2.30;;;14.70;99.90;;;;;;5079297;28;20124;-74
2023/09/14 08:05:39;;;;;;;13.18;2.38;;;14.80;99.90;;;;;;5077831;28;20083;-74
2023/09/14 08:08:04;;;;;;;8.98;2.28;;;14.80;99.90;;;;;;5075674;28;20486;-74
2023/09/14 08:10:31;;;;;;;8.57;1.98;;;14.90;99.90;;;;;;5078411;28;20031;-74
2023/09/14 08:12:58;;;;;;;6.75;1.67;;;14.90;99.90;;;;;;5080707;28;20028;-74
2023/09/14 08:15:24;;;;;;;10.65;1.80;;;15.00;99.90;;;;;;5077227;28;20119;-74
2023/09/14 08:17:49;;;;;;;6.38;2.25;;;15.00;99.90;;;;;;5079428;28;20026;-76
2023/09/14 08:20:15;;;;;;;5.93;1.90;;;15.10;99.90;;;;;;5083039;28;20039;-75
2023/09/14 08:22:41;;;;;;;6.78;2.30;;;15.20;99.90;;;;;;5079664;28;20047;-75
2023/09/14 08:25:07;;;;;;;8.02;1.92;;;15.20;99.90;;;;;;5079501;28;20032;-74
2023/09/14 08:27:33;;;;;;;5.90;2.30;;;15.30;99.90;;;;;;5078495;28;20029;-72
2023/09/14 08:29:59;;;;;;;7.78;2.28;;;15.40;99.90;;;;;;5079283;28;20031;-74
2023/09/14 08:32:24;;;;;;;7.00;2.22;;;15.40;99.90;;;;;;5078693;28;20029;-74
2023/09/14 08:34:50;;;;;;;7.32;1.90;;;15.40;99.90;;;;;;5077492;28;20044;-73
2023/09/14 08:37:15;;;;;;;8.38;2.05;;;15.50;99.90;;;;;;5077929;28;20071;-75
2023/09/14 08:39:41;;;;;;;9.63;2.55;;;15.50;99.90;;;;;;5080612;28;20078;-75
2023/09/14 08:42:07;;;;;;;9.52;2.95;;;15.60;99.90;;;;;;5079629;28;20445;-76
2023/09/14 08:44:34;;;;;;;6.07;2.05;;;15.60;99.90;;;;;;5076194;28;20029;-75
2023/09/14 08:47:01;;;;;;;9.55;2.55;;;15.70;99.90;;;;;;5078216;28;20036;-76
2023/09/14 08:49:28;;;;;;;7.28;2.88;;;15.70;99.90;;;;;;5078497;28;20016;-74
2023/09/14 08:51:57;;;;;;;12.20;3.33;;;15.80;99.90;;;;;;5077338;28;20036;-73
2023/09/14 08:54:23;;;;;;;6.95;2.40;;;15.80;99.90;;;;;;5080987;28;20024;-75
2023/09/14 08:56:51;;;;;;;9.15;2.80;;;15.90;99.90;;;;;;5079466;28;20135;-75
2023/09/14 08:59:21;;;;;;;8.93;3.47;;;15.90;99.90;;;;;;5077927;28;20036;-76
2023/09/14 09:01:48;;;;;;;13.77;3.97;;;16.00;99.90;;;;;;5072873;28;20025;-76
2023/09/14 09:04:14;;;;;;;11.55;3.05;;;16.00;99.90;;;;;;5076626;28;20032;-76
2023/09/14 09:06:42;;;;;;;12.90;3.63;;;16.10;99.90;;;;;;5078422;28;20029;-77
2023/09/14 09:09:09;;;;;;;19.13;3.90;;;16.10;99.90;;;;;;5079848;28;20025;-75
2023/09/14 09:11:37;;;;;;;10.35;3.40;;;16.30;99.90;;;;;;5077375;28;20031;-75
2023/09/14 09:14:03;;;;;;;12.48;3.65;;;16.30;99.90;;;;;;5075892;28;20027;-74
2023/09/14 09:16:30;;;;;;;9.40;3.97;;;16.40;99.90;;;;;;5076709;28;20083;-74
2023/09/14 09:19:05;;;;;;;15.52;4.15;;;16.50;99.90;;;;;;5076727;28;20048;-73
2023/09/14 09:21:33;;;;;;;17.25;4.07;;;16.70;99.90;;;;;;5077578;28;20020;-76
2023/09/14 09:24:07;;;;;;;16.58;4.60;;;16.80;99.90;;;;;;5075321;28;20071;-76
2023/09/14 09:26:38;;;;;;;13.23;3.65;;;16.90;99.90;;;;;;5072490;28;20033;-76
2023/09/14 09:29:18;;;;;;;11.75;3.92;;;17.00;99.90;;;;;;5077863;28;20106;-73
2023/09/14 09:31:46;;;;;;;18.77;3.30;;;17.10;99.90;;;;;;5075788;28;20035;-75
2023/09/14 09:34:13;;;;;;;9.75;3.08;;;17.10;99.90;;;;;;5078005;28;20137;-73
2023/09/14 09:36:38;;;;;;;8.85;1.73;;;17.20;99.90;;;;;;5078311;28;20032;-76
2023/09/14 09:39:06;;;;;;;7.85;1.70;;;17.20;99.90;;;;;;5078074;28;20142;-73
2023/09/14 09:41:36;;;;;;;9.35;1.98;;;17.20;99.90;;;;;;5080405;28;20025;-74
2023/09/14 09:44:06;;;;;;;9.68;2.53;;;17.30;99.90;;;;;;5078945;28;20079;-74
2023/09/14 09:46:36;;;;;;;9.85;2.08;;;17.40;99.90;;;;;;5079813;28;20031;-73
2023/09/14 09:49:23;;;;;;;5.07;1.92;;;17.50;99.90;;;;;;5078759;28;20115;-75
2023/09/14 09:51:50;;;;;;;10.48;1.60;;;17.60;99.90;;;;;;5077765;28;20104;-74
2023/09/14 09:54:20;;;;;;;6.88;1.88;;;17.60;99.90;;;;;;5080243;28;20055;-73
2023/09/14 09:56:45;;;;;;;7.60;1.77;;;17.60;99.90;;;;;;5079671;28;20688;-74
2023/09/14 09:59:14;;;;;;;4.22;1.60;;;17.50;99.90;;;;;;5078789;28;20024;-73
2023/09/14 10:01:43;;;;;;;6.55;1.63;;;17.50;99.90;;;;;;5077465;28;20067;-72
2023/09/14 10:04:10;;;;;;;5.43;1.10;;;17.40;99.90;;;;;;5079298;28;20426;-73
2023/09/14 10:06:37;;;;;;;4.78;1.10;;;17.40;99.90;;;;;;5079392;28;20029;-72
2023/09/14 10:09:08;;;;;;;4.47;0.90;;;17.30;99.90;;;;;;5079973;28;20492;-73
2023/09/14 10:11:35;;;;;;;4.97;1.00;;;17.30;99.90;;;;;;5079327;28;20381;-74
2023/09/14 10:14:05;;;;;;;7.28;0.98;;;17.20;99.90;;;;;;5077676;28;20389;-74
2023/09/14 10:16:40;;;;;;;4.20;1.13;;;17.20;99.90;;;;;;5079280;28;20100;-74
2023/09/14 10:19:07;;;;;;;2.67;0.90;;;17.10;99.90;;;;;;5080343;28;20016;-72
2023/09/14 10:21:37;;;;;;;4.38;1.10;;;17.10;99.90;;;;;;5075119;28;20048;-74
2023/09/14 10:24:06;;;;;;;6.47;1.00;;;17.10;99.90;;;;;;5077632;28;20041;-77
2023/09/14 10:26:38;;;;;;;4.65;0.85;;;17.00;99.90;;;;;;5078639;28;20028;-73
2023/09/14 10:29:09;;;;;;;6.13;0.85;;;17.00;99.90;;;;;;5078518;28;20028;-74
2023/09/14 10:31:46;;;;;;;4.70;1.10;;;17.00;99.90;;;;;;5077562;28;20029;-73
2023/09/14 10:34:13;;;;;;;7.10;1.17;;;17.00;99.90;;;;;;5080045;28;20071;-73
2023/09/14 10:36:41;;;;;;;5.38;1.00;;;17.00;99.90;;;;;;5079391;28;20040;-73
2023/09/14 10:39:08;;;;;;;3.70;0.88;;;17.00;99.90;;;;;;5080258;28;20028;-73
2023/09/14 10:41:34;;;;;;;3.83;1.10;;;17.00;99.90;;;;;;5079618;28;20027;-73
2023/09/14 10:44:00;;;;;;;7.57;0.85;;;17.10;99.90;;;;;;5078258;28;20032;-77
2023/09/14 10:46:35;;;;;;;2.22;1.00;;;17.10;99.90;;;;;;5080488;28;20071;-73
2023/09/14 10:49:03;;;;;;;3.55;0.90;;;17.10;99.90;;;;;;5076979;28;20028;-75
2023/09/14 10:51:29;;;;;;;3.63;1.00;;;17.20;99.90;;;;;;5078080;28;20040;-75
2023/09/14 10:53:54;;;;;;;8.38;0.85;;;17.30;99.90;;;;;;5078158;28;20043;-73
2023/09/14 10:56:30;;;;;;;3.65;1.10;;;17.40;99.90;;;;;;5078496;28;20040;-73
2023/09/14 10:58:58;;;;;;;5.88;1.23;;;17.40;99.90;;;;;;5078921;28;20103;-73
2023/09/14 11:01:28;;;;;;;4.07;1.23;;;17.50;99.90;;;;;;5083763;28;20024;-73
2023/09/14 11:04:13;;;;;;;5.43;1.30;;;17.60;99.90;;;;;;5081671;28;20035;-73
2023/09/14 11:06:52;;;;;;;6.53;1.23;;;17.70;99.90;;;;;;5081964;28;20025;-74
2023/09/14 11:09:21;;;;;;;3.38;1.30;;;17.80;99.90;;;;;;5083103;28;20029;-73
2023/09/14 11:11:50;;;;;;;5.25;1.35;;;17.80;99.90;;;;;;5082980;28;20425;-74
2023/09/14 11:14:17;;;;;;;4.95;1.17;;;17.90;99.90;;;;;;5083854;28;20048;-72
2023/09/14 11:16:49;;;;;;;5.18;1.17;;;18.00;99.90;;;;;;5083337;28;20051;-74
2023/09/14 11:19:44;;;;;;;4.55;1.27;;;18.00;99.90;;;;;;5082672;28;20032;-73
2023/09/14 11:22:14;;;;;;;3.85;1.13;;;18.00;99.90;;;;;;5083081;28;20032;-73
2023/09/14 11:24:41;;;;;;;6.97;1.73;;;17.90;99.90;;;;;;5082365;28;20077;-73
2023/09/14 11:27:07;;;;;;;7.53;1.20;;;17.90;99.90;;;;;;5083327;28;20028;-72
2023/09/14 11:29:33;;;;;;;3.72;1.30;;;17.90;99.90;;;;;;5083694;28;20052;-73
2023/09/14 11:32:04;;;;;;;3.67;0.93;;;17.80;99.90;;;;;;5084405;28;20107;-75
2023/09/14 11:34:31;;;;;;;5.40;1.33;;;17.80;99.90;;;;;;5081437;28;20062;-75
2023/09/14 11:37:00;;;;;;;4.22;1.30;;;17.80;99.90;;;;;;5082123;28;20043;-74
2023/09/14 11:39:29;;;;;;;5.18;1.40;;;17.70;99.90;;;;;;5082417;28;20115;-74
2023/09/14 11:41:57;;;;;;;3.28;1.13;;;17.70;99.90;;;;;;5080681;28;20036;-74
2023/09/14 11:44:24;;;;;;;4.30;1.27;;;17.70;99.90;;;;;;5082605;28;20025;-73
2023/09/14 11:46:50;;;;;;;6.57;1.30;;;17.70;99.90;;;;;;5083717;28;20017;-73
2023/09/14 11:49:20;;;;;;;4.88;1.30;;;17.70;99.90;;;;;;5077476;28;20025;-73
2023/09/14 11:51:47;;;;;;;7.15;1.67;;;17.60;99.90;;;;;;5081865;28;20544;-73
2023/09/14 11:54:13;;;;;;;5.97;1.17;;;17.60;99.90;;;;;;5078448;28;20054;-74
2023/09/14 11:56:38;;;;;;;7.55;1.50;;;17.70;99.90;;;;;;5079182;28;20044;-73
2023/09/14 11:59:05;;;;;;;10.32;1.30;;;17.70;99.90;;;;;;5080315;28;20075;-74
2023/09/14 12:01:34;;;;;;;4.90;1.15;;;17.70;99.90;;;;;;5083469;28;20033;-73
2023/09/14 12:04:03;;;;;;;4.55;1.27;;;17.70;99.90;;;;;;5081678;28;20028;-75
2023/09/14 12:06:30;;;;;;;3.40;1.10;;;17.70;99.90;;;;;;5081952;28;20055;-76
2023/09/14 12:08:57;;;;;;;6.95;1.33;;;17.70;99.90;;;;;;5081735;28;20111;-73
2023/09/14 12:11:22;;;;;;;4.35;0.93;;;17.70;99.90;;;;;;5082584;28;20074;-74
2023/09/14 12:13:55;;;;;;;5.40;1.30;;;17.80;99.90;;;;;;5082946;28;20485;-73
2023/09/14 12:16:24;;;;;;;9.80;1.37;;;17.80;99.90;;;;;;5079911;28;20394;-72
2023/09/14 12:18:51;;;;;;;7.45;1.20;;;17.90;99.90;;;;;;5078774;28;20044;-72
2023/09/14 12:21:19;;;;;;;3.90;1.15;;;17.90;99.90;;;;;;5080208;28;20440;-72
2023/09/14 12:23:48;;;;;;;9.48;1.30;;;18.00;99.90;;;;;;5079545;28;20107;-73
2023/09/14 12:26:17;;;;;;;3.95;1.10;;;18.00;99.90;;;;;;5080041;28;20024;-73
2023/09/14 12:28:51;;;;;;;5.97;1.20;;;18.10;99.90;;;;;;5081779;28;20016;-72
2023/09/14 12:31:18;;;;;;;6.28;1.25;;;18.10;99.90;;;;;;5081830;28;20035;-73
2023/09/14 12:33:44;;;;;;;3.50;0.98;;;18.10;99.90;;;;;;5081969;28;20138;-72
2023/09/14 12:36:11;;;;;;;2.60;0.90;;;18.10;99.90;;;;;;5080099;28;20064;-72
2023/09/14 12:38:37;;;;;;;4.45;1.10;;;18.10;99.90;;;;;;5078014;28;20025;-73
2023/09/14 12:41:07;;;;;;;3.70;1.17;;;18.10;99.90;;;;;;5079133;28;20032;-73
2023/09/14 12:43:33;;;;;;;4.93;1.25;;;18.10;99.90;;;;;;5079065;28;20036;-75
2023/09/14 12:46:00;;;;;;;3.22;1.10;;;18.10;99.90;;;;;;5079527;28;20039;-72